»·PEaware :: ASA563 KRNO-KSLC

ASA563 :: KRNO-KSLC

FLIGHT INFORMATION

Flight Status: Arrived
Operator:
Alaska Airlines
More flights by this operator :: More flights under this callsign
Pilot: Pratham R. (19019)
Aircraft: BOEING 737-800
(B738)
More flights by this aircraft type
Origin: KRNO Reno/Tahoe Intl
United States
Destination: KSLC Salt Lake City Intl
United States
More flights between these airports :: More routes between these airports
Route: +ZEFFR6 BLKJK LLC BAM J154 BVL WAATS5
File this flight plan on PilotEdge
Remarks: RMK / SIMBRIEF
Altitude:
(Current/Filed)
37,000ft
Speed:
(Current/Filed)
451kts
Departed: 23-Jun-20 02:17 PM
Arrived: 23-Jun-20 03:24 PM
Distance/Time
Traveled:
365nm/1:07
Distance/Time
To Go:
Arrived

Flight Plot

Page will automatically refresh every two minutes.

Flight plan parsing failed; only flown route is shown


Map Options




Map Legend


Flown Route
Filed Route
Departure Airport
Arrival Airport
Navaid (VOR, NDB)
Fix

Horizontal Profiles

Position Reports

Time Latitude Longitude Heading Altitude Ground
Speed
23-Jun-20 13:53 39.503089 -119.772490 180 4425ft 0kts
23-Jun-20 13:54 39.503089 -119.772490 180 4425ft 0kts
23-Jun-20 13:55 39.503089 -119.772490 180 4425ft 0kts
23-Jun-20 13:56 39.503089 -119.772490 180 4425ft 0kts
23-Jun-20 13:56 39.503089 -119.772490 180 4425ft 0kts
23-Jun-20 13:58 39.503089 -119.772490 180 4425ft 0kts
23-Jun-20 13:58 39.503089 -119.772490 180 4425ft 0kts
23-Jun-20 13:59 39.503089 -119.772490 180 4425ft 0kts
23-Jun-20 14:01 39.503089 -119.772490 180 4425ft 0kts
23-Jun-20 14:01 39.503089 -119.772490 180 4425ft 0kts
23-Jun-20 14:02 39.503089 -119.772490 180 4425ft 0kts
23-Jun-20 14:03 39.503089 -119.772490 180 4425ft 0kts
23-Jun-20 14:04 39.503089 -119.772490 180 4425ft 0kts
23-Jun-20 14:05 39.503089 -119.772490 180 4425ft 0kts
23-Jun-20 14:06 39.503529 -119.772529 151 4425ft 2kts
23-Jun-20 14:07 39.503745 -119.773051 87 4425ft 0kts
23-Jun-20 14:08 39.503745 -119.773053 87 4425ft 0kts
23-Jun-20 14:09 39.503745 -119.773053 87 4425ft 0kts
23-Jun-20 14:10 39.503745 -119.773053 87 4425ft 0kts
23-Jun-20 14:11 39.503753 -119.772457 89 4425ft 5kts
23-Jun-20 14:12 39.504685 -119.771510 358 4425ft 11kts
23-Jun-20 14:13 39.510319 -119.771530 359 4425ft 22kts
23-Jun-20 14:14 39.513744 -119.769919 90 4425ft 10kts
23-Jun-20 14:15 39.513415 -119.766766 170 4425ft 7kts
23-Jun-20 14:16 39.494579 -119.766806 179 4451ft 172kts
23-Jun-20 14:17 39.443764 -119.766127 187 6551ft 196kts
23-Jun-20 14:18 39.386607 -119.768526 179 8413ft 225kts
23-Jun-20 14:19 39.317939 -119.750286 142 10463ft 284kts
23-Jun-20 14:20 39.287467 -119.652810 81 12405ft 344kts
23-Jun-20 14:21 39.337291 -119.540774 56 14930ft 372kts
23-Jun-20 14:22 39.409591 -119.441473 43 17645ft 389kts
23-Jun-20 14:23 39.490234 -119.345196 44 20151ft 403kts
23-Jun-20 14:24 39.573773 -119.245347 43 22457ft 417kts
23-Jun-20 14:25 39.659933 -119.142232 43 24555ft 430kts
23-Jun-20 14:26 39.749120 -119.035149 43 26513ft 443kts
23-Jun-20 14:27 39.839684 -118.924319 43 28301ft 454kts
23-Jun-20 14:28 39.931560 -118.810314 42 30173ft 458kts
23-Jun-20 14:29 40.024477 -118.698699 41 32260ft 453kts
23-Jun-20 14:30 40.106154 -118.575885 55 34163ft 448kts
23-Jun-20 14:31 40.162957 -118.432790 67 35904ft 442kts
23-Jun-20 14:32 40.205969 -118.285986 71 37096ft 444kts
23-Jun-20 14:33 40.247571 -118.134105 71 37091ft 440kts
23-Jun-20 14:34 40.288624 -117.983474 71 37091ft 442kts
23-Jun-20 14:35 40.329650 -117.832138 71 37091ft 441kts
23-Jun-20 14:36 40.370537 -117.680408 71 37118ft 441kts
23-Jun-20 14:37 40.410562 -117.528390 71 37137ft 442kts
23-Jun-20 14:38 40.450397 -117.376189 71 37137ft 441kts
23-Jun-20 14:39 40.490292 -117.223734 71 37137ft 441kts
23-Jun-20 14:40 40.530129 -117.071390 71 37137ft 442kts
23-Jun-20 14:41 40.563315 -116.916222 81 37137ft 443kts
23-Jun-20 14:42 40.578089 -116.755407 84 37137ft 443kts
23-Jun-20 14:43 40.589299 -116.593919 85 37137ft 443kts
23-Jun-20 14:44 40.599475 -116.432432 85 37137ft 443kts
23-Jun-20 14:45 40.609186 -116.271200 86 37162ft 443kts
23-Jun-20 14:46 40.617613 -116.109450 86 37192ft 443kts
23-Jun-20 14:47 40.625929 -115.947604 86 37191ft 443kts
23-Jun-20 14:48 40.634221 -115.786049 86 37192ft 443kts
23-Jun-20 14:49 40.642506 -115.624532 86 37192ft 443kts
23-Jun-20 14:50 40.650794 -115.462840 86 37192ft 443kts
23-Jun-20 14:51 40.659095 -115.300958 86 37192ft 443kts
23-Jun-20 14:52 40.667390 -115.139506 86 37192ft 444kts
23-Jun-20 14:53 40.675752 -114.976356 84 37192ft 448kts
23-Jun-20 14:54 40.683578 -114.813452 84 37168ft 445kts
23-Jun-20 14:55 40.690911 -114.650326 84 37146ft 446kts
23-Jun-20 14:56 40.698056 -114.487782 84 37146ft 446kts
23-Jun-20 14:57 40.705023 -114.324546 85 37146ft 446kts
23-Jun-20 14:58 40.711809 -114.161095 85 36490ft 457kts
23-Jun-20 14:59 40.718476 -113.994545 85 33558ft 453kts
23-Jun-20 15:00 40.724224 -113.829406 86 30560ft 453kts
23-Jun-20 15:01 40.726458 -113.668125 89 28464ft 430kts
23-Jun-20 15:02 40.726113 -113.513863 89 26364ft 413kts
23-Jun-20 15:03 40.725788 -113.365386 89 24332ft 398kts
23-Jun-20 15:04 40.725360 -113.217661 90 22281ft 404kts
23-Jun-20 15:05 40.724736 -113.073103 90 20246ft 386kts
23-Jun-20 15:06 40.723819 -112.934644 90 18265ft 371kts
23-Jun-20 15:07 40.722437 -112.799507 89 17033ft 376kts
23-Jun-20 15:08 40.721038 -112.661320 89 17026ft 375kts
23-Jun-20 15:09 40.721432 -112.524800 80 16355ft 367kts
23-Jun-20 15:10 40.742006 -112.395486 76 14317ft 354kts
23-Jun-20 15:11 40.762688 -112.270451 79 12394ft 343kts
23-Jun-20 15:12 40.760680 -112.153932 111 12044ft 292kts
23-Jun-20 15:13 40.706384 -112.089047 165 12049ft 264kts
23-Jun-20 15:14 40.634121 -112.078078 176 11467ft 261kts
23-Jun-20 15:15 40.562306 -112.069804 176 10256ft 258kts
23-Jun-20 15:16 40.513290 -112.022028 82 9451ft 224kts
23-Jun-20 15:17 40.556305 -111.976362 21 8172ft 203kts
23-Jun-20 15:18 40.607544 -111.976426 351 7536ft 184kts
23-Jun-20 15:19 40.656458 -111.982160 353 6655ft 172kts
23-Jun-20 15:20 40.702219 -111.987481 354 5594ft 158kts
23-Jun-20 15:21 40.745911 -111.992270 354 4792ft 156kts
23-Jun-20 15:22 40.787497 -111.996917 355 4226ft 101kts
23-Jun-20 15:23 40.798551 -111.996366 62 4229ft 9kts
23-Jun-20 15:24 40.797219 -111.994890 174 4230ft 8kts
23-Jun-20 15:25 40.794570 -111.994579 174 4226ft 12kts
23-Jun-20 15:26 40.791768 -111.993081 83 4226ft 12kts
23-Jun-20 15:27 40.791053 -111.989227 162 4226ft 11kts
23-Jun-20 15:28 40.788739 -111.986869 96 4226ft 11kts
23-Jun-20 15:29 40.788685 -111.985570 85 4226ft 0kts
23-Jun-20 15:30 40.788685 -111.985570 85 4226ft 0kts
23-Jun-20 15:31 40.788685 -111.985570 85 4226ft 0kts
23-Jun-20 15:32 40.788685 -111.985570 85 4226ft 0kts
23-Jun-20 15:33 40.788685 -111.985570 85 4226ft 0kts
23-Jun-20 15:34 40.788685 -111.985570 85 4226ft 0kts
23-Jun-20 15:35 40.788685 -111.985570 85 4226ft 0kts
23-Jun-20 15:36 40.788685 -111.985570 85 4226ft 0kts

Navigation Log

Ident Type
Flight plan parsing failed, navigation log unavailable